createdAt,value
2022-08-26T00:01:56.928Z,26.97
2022-08-26T00:04:25.657Z,27.04
2022-08-26T00:06:53.797Z,26.83
2022-08-26T00:09:21.026Z,26.98
2022-08-26T00:11:47.690Z,26.94
2022-08-26T00:14:15.850Z,26.93
2022-08-26T00:16:48.185Z,27.00
2022-08-26T00:19:17.082Z,26.84
2022-08-26T00:21:44.118Z,26.91
2022-08-26T00:24:10.937Z,26.76
2022-08-26T00:26:37.594Z,26.90
2022-08-26T00:29:04.516Z,26.89
2022-08-26T00:31:32.608Z,26.97
2022-08-26T00:33:59.693Z,26.96
2022-08-26T00:36:29.716Z,26.71
2022-08-26T00:38:58.115Z,27.00
2022-08-26T00:41:24.693Z,27.02
2022-08-26T00:43:53.132Z,26.78
2022-08-26T00:46:28.762Z,26.73
2022-08-26T00:49:05.356Z,27.11
2022-08-26T00:51:45.403Z,27.18
2022-08-26T00:54:12.815Z,27.08
2022-08-26T00:56:50.700Z,27.08
2022-08-26T00:59:18.045Z,27.07
2022-08-26T01:01:45.912Z,26.96
2022-08-26T01:04:17.890Z,26.99
2022-08-26T01:06:45.140Z,27.05
2022-08-26T01:09:12.200Z,26.91
2022-08-26T01:11:39.811Z,27.00
2022-08-26T01:14:08.761Z,26.99
2022-08-26T01:16:36.629Z,26.66
2022-08-26T01:19:15.999Z,26.69
2022-08-26T01:21:50.127Z,27.05
2022-08-26T01:24:18.270Z,26.96
2022-08-26T01:26:45.766Z,26.84
2022-08-26T01:29:16.339Z,26.97
2022-08-26T01:31:47.938Z,26.94
2022-08-26T01:34:25.883Z,26.96
2022-08-26T01:37:01.656Z,26.60
2022-08-26T01:39:28.929Z,26.83
2022-08-26T01:41:58.174Z,26.82
2022-08-26T01:44:39.187Z,26.80
2022-08-26T01:47:07.116Z,26.76
2022-08-26T01:49:36.655Z,26.63
2022-08-26T01:52:05.814Z,26.55
2022-08-26T01:54:33.220Z,26.66
2022-08-26T01:57:00.992Z,26.63
2022-08-26T01:59:30.368Z,26.59
2022-08-26T02:01:57.342Z,26.66
2022-08-26T02:04:59.610Z,26.64
2022-08-26T02:07:27.934Z,26.61
2022-08-26T02:09:55.160Z,26.62
2022-08-26T02:12:22.470Z,26.60
2022-08-26T02:14:59.660Z,26.51
2022-08-26T02:17:33.867Z,26.52
2022-08-26T02:20:02.530Z,26.53
2022-08-26T02:22:31.048Z,26.33
2022-08-26T02:25:02.348Z,26.27
2022-08-26T02:27:32.880Z,26.49
2022-08-26T02:30:17.226Z,26.42
2022-08-26T02:32:44.431Z,26.40
2022-08-26T02:35:13.856Z,26.28
2022-08-26T02:37:49.540Z,26.30
2022-08-26T02:40:21.484Z,26.37
2022-08-26T02:42:49.540Z,26.37
2022-08-26T02:45:23.280Z,26.30
2022-08-26T02:47:51.583Z,26.30
2022-08-26T02:50:19.235Z,25.97
2022-08-26T02:52:45.903Z,26.37
2022-08-26T02:55:12.624Z,26.39
2022-08-26T02:57:39.489Z,26.46
2022-08-26T03:00:09.230Z,26.36
2022-08-26T03:02:35.885Z,26.08
2022-08-26T03:05:02.928Z,26.12
2022-08-26T03:07:30.402Z,26.01
2022-08-26T03:09:58.230Z,25.86
2022-08-26T03:12:25.686Z,25.76
2022-08-26T03:14:52.774Z,25.61
2022-08-26T03:17:19.418Z,25.58
2022-08-26T03:19:46.047Z,25.57
2022-08-26T03:22:14.554Z,25.55
2022-08-26T03:24:42.163Z,25.46
2022-08-26T03:27:13.346Z,25.21
2022-08-26T03:30:00.184Z,25.29
2022-08-26T03:32:28.051Z,24.83
2022-08-26T03:34:56.482Z,25.11
2022-08-26T03:37:23.128Z,25.33
2022-08-26T03:39:49.942Z,25.33
2022-08-26T03:42:16.961Z,25.21
2022-08-26T03:44:43.806Z,24.97
2022-08-26T03:47:11.124Z,25.10
2022-08-26T03:49:38.081Z,25.02
2022-08-26T03:52:05.169Z,24.95
2022-08-26T03:54:32.547Z,24.99
2022-08-26T03:56:59.089Z,24.79
2022-08-26T03:59:25.980Z,24.98
2022-08-26T04:01:52.641Z,24.98
2022-08-26T04:04:22.602Z,24.74
2022-08-26T04:06:50.248Z,24.98
2022-08-26T04:09:20.969Z,24.87
2022-08-26T04:11:50.376Z,24.92
2022-08-26T04:14:20.745Z,25.06
2022-08-26T04:16:48.252Z,24.93
2022-08-26T04:19:16.433Z,24.76
2022-08-26T04:21:44.187Z,25.15
2022-08-26T04:24:13.971Z,25.06
2022-08-26T04:26:42.813Z,24.99
2022-08-26T04:29:17.665Z,25.07
2022-08-26T04:31:44.847Z,25.23
2022-08-26T04:34:11.683Z,25.26
2022-08-26T04:36:41.121Z,25.15
2022-08-26T04:39:12.113Z,24.85
2022-08-26T04:41:40.078Z,25.29
2022-08-26T04:44:07.790Z,25.23
2022-08-26T04:46:35.355Z,25.15
2022-08-26T04:49:08.829Z,24.56
2022-08-26T04:51:36.756Z,24.87
2022-08-26T04:54:06.979Z,24.62
2022-08-26T04:56:37.696Z,25.04
2022-08-26T04:59:08.021Z,25.06
2022-08-26T05:01:45.541Z,25.24
2022-08-26T05:04:13.260Z,25.35
2022-08-26T05:06:43.063Z,25.25
2022-08-26T05:09:10.014Z,24.77
2022-08-26T05:11:38.109Z,25.27
2022-08-26T05:14:06.032Z,25.06
2022-08-26T05:16:32.668Z,25.27
2022-08-26T05:18:59.689Z,25.23
2022-08-26T05:21:29.017Z,25.25
2022-08-26T05:23:56.476Z,25.34
2022-08-26T05:26:26.544Z,25.30
2022-08-26T05:28:54.731Z,25.40
2022-08-26T05:31:28.450Z,24.90
2022-08-26T05:33:57.637Z,25.44
2022-08-26T05:36:27.849Z,25.18
2022-08-26T05:38:55.725Z,25.16
2022-08-26T05:41:34.219Z,25.14
2022-08-26T05:44:06.202Z,25.58
2022-08-26T05:46:33.949Z,25.61
2022-08-26T05:49:01.599Z,25.46
2022-08-26T05:51:30.353Z,25.48
2022-08-26T05:53:57.269Z,25.77
2022-08-26T05:56:27.522Z,25.79
2022-08-26T05:58:55.932Z,25.83
2022-08-26T06:01:26.331Z,25.79
2022-08-26T06:03:57.581Z,25.97
2022-08-26T06:06:32.839Z,26.02
2022-08-26T06:09:01.258Z,25.72
2022-08-26T06:11:29.609Z,26.14
2022-08-26T06:14:03.627Z,26.12
2022-08-26T06:16:33.490Z,25.79
2022-08-26T06:19:02.899Z,26.42
2022-08-26T06:21:32.540Z,26.51
2022-08-26T06:24:21.492Z,26.58
2022-08-26T06:26:57.578Z,26.67
2022-08-26T06:29:25.970Z,26.86
2022-08-26T06:31:56.447Z,26.77
2022-08-26T06:34:26.737Z,26.71
2022-08-26T06:37:06.449Z,26.54
2022-08-26T06:39:33.533Z,27.04
2022-08-26T06:42:00.996Z,26.93
2022-08-26T06:44:29.843Z,26.90
2022-08-26T06:46:56.505Z,26.84
2022-08-26T06:49:26.979Z,26.96
2022-08-26T06:51:55.368Z,27.03
2022-08-26T06:54:22.373Z,27.09
2022-08-26T06:56:49.595Z,26.99
2022-08-26T06:59:16.287Z,26.97
2022-08-26T07:01:47.279Z,26.71
2022-08-26T07:04:21.835Z,27.21
2022-08-26T07:06:49.335Z,27.27
2022-08-26T07:09:17.408Z,27.27
2022-08-26T07:11:45.070Z,26.79
2022-08-26T07:14:12.436Z,26.53
2022-08-26T07:16:39.663Z,27.35
2022-08-26T07:19:11.267Z,27.52
2022-08-26T07:21:40.451Z,27.49
2022-08-26T07:24:07.757Z,27.48
2022-08-26T07:26:34.860Z,27.51
2022-08-26T07:29:02.010Z,27.66
2022-08-26T07:31:39.185Z,27.81
2022-08-26T07:34:07.719Z,27.56
2022-08-26T07:36:34.887Z,27.53
2022-08-26T07:39:01.530Z,27.58
2022-08-26T07:43:56.774Z,27.92
2022-08-26T07:46:27.492Z,27.65
2022-08-26T07:48:58.075Z,27.77
2022-08-26T07:51:25.073Z,27.64
2022-08-26T07:53:52.434Z,27.81
2022-08-26T07:56:20.121Z,27.46
2022-08-26T07:58:51.335Z,27.77
2022-08-26T08:01:23.974Z,27.82
2022-08-26T08:03:52.349Z,27.73
2022-08-26T08:06:27.135Z,27.55
2022-08-26T08:08:55.259Z,27.60
2022-08-26T08:11:23.184Z,27.59
2022-08-26T08:13:56.338Z,27.45
2022-08-26T08:16:26.197Z,28.01
2022-08-26T08:18:53.504Z,27.98
2022-08-26T08:21:22.021Z,27.92
2022-08-26T08:23:55.384Z,28.01
2022-08-26T08:26:24.072Z,27.95
2022-08-26T08:28:53.644Z,28.12
2022-08-26T08:34:21.518Z,28.26
2022-08-26T08:36:48.647Z,28.53
2022-08-26T08:39:16.804Z,28.04
2022-08-26T08:42:04.322Z,28.28
2022-08-26T08:44:31.132Z,28.37
2022-08-26T08:47:06.167Z,28.30
2022-08-26T08:49:34.054Z,28.37
2022-08-26T08:52:19.948Z,28.26
2022-08-26T08:54:46.694Z,27.92
2022-08-26T08:57:24.470Z,28.54
2022-08-26T09:00:04.467Z,28.55
2022-08-26T09:02:42.248Z,28.37
2022-08-26T09:05:16.198Z,28.58
2022-08-26T09:07:52.893Z,28.56
2022-08-26T09:10:43.317Z,28.50
2022-08-26T09:13:16.848Z,28.43
2022-08-26T09:16:26.051Z,28.69
2022-08-26T09:19:23.998Z,28.74
2022-08-26T09:22:02.242Z,28.92
2022-08-26T09:24:40.867Z,29.12
2022-08-26T09:27:08.952Z,28.83
2022-08-26T09:29:44.341Z,28.80
2022-08-26T09:32:24.399Z,28.80
2022-08-26T09:34:58.190Z,28.73
2022-08-26T09:37:36.283Z,29.11
2022-08-26T09:40:29.748Z,28.90
2022-08-26T09:43:09.715Z,28.77
2022-08-26T09:45:40.138Z,28.65
2022-08-26T09:48:08.302Z,28.81
2022-08-26T09:50:39.971Z,29.12
2022-08-26T09:53:21.068Z,29.44
2022-08-26T09:56:12.750Z,29.63
2022-08-26T09:58:41.934Z,29.96
2022-08-26T10:01:16.319Z,29.90
2022-08-26T10:03:43.400Z,29.80
2022-08-26T10:06:13.067Z,30.63
2022-08-26T10:08:47.632Z,30.87
2022-08-26T10:11:24.380Z,31.09
2022-08-26T10:14:02.370Z,31.25
2022-08-26T10:16:36.494Z,31.09
2022-08-26T10:19:09.882Z,31.45
2022-08-26T10:21:44.464Z,31.72
2022-08-26T10:24:19.141Z,31.87
2022-08-26T10:27:07.872Z,32.21
2022-08-26T10:29:46.463Z,32.36
2022-08-26T10:32:31.613Z,32.51
2022-08-26T10:35:00.335Z,32.43
2022-08-26T10:37:35.521Z,32.86
2022-08-26T10:40:11.208Z,32.85
2022-08-26T10:43:11.044Z,33.12
2022-08-26T10:45:53.357Z,33.08
2022-08-26T10:48:23.082Z,33.49
2022-08-26T10:50:50.239Z,33.58
2022-08-26T10:53:19.744Z,33.64
2022-08-26T10:56:05.478Z,33.79
2022-08-26T10:58:41.296Z,33.56
2022-08-26T11:01:43.768Z,33.93
2022-08-26T11:04:38.619Z,34.23
2022-08-26T11:07:38.281Z,34.25
2022-08-26T11:10:29.913Z,34.04
2022-08-26T11:13:03.804Z,34.46
2022-08-26T11:15:30.910Z,34.73
2022-08-26T11:18:01.476Z,34.40
2022-08-26T11:20:45.998Z,34.83
2022-08-26T11:23:13.838Z,34.92
2022-08-26T11:26:02.065Z,35.12
2022-08-26T11:28:36.135Z,35.18
2022-08-26T11:31:05.578Z,35.33
2022-08-26T11:33:57.009Z,35.31
2022-08-26T11:36:42.797Z,35.17
2022-08-26T11:39:49.346Z,35.26
2022-08-26T11:42:43.365Z,35.52
2022-08-26T11:45:18.531Z,35.60
2022-08-26T11:47:46.641Z,35.82
2022-08-26T11:50:20.584Z,36.00
2022-08-26T11:52:51.856Z,35.99
2022-08-26T11:55:19.223Z,36.28
2022-08-26T11:57:52.558Z,36.15
2022-08-26T12:00:24.199Z,36.54
2022-08-26T12:02:52.388Z,36.73
2022-08-26T12:05:30.986Z,36.91
2022-08-26T12:08:03.168Z,37.02
2022-08-26T12:10:33.701Z,36.90
2022-08-26T12:13:01.566Z,36.98
2022-08-26T12:15:32.153Z,36.62
2022-08-26T12:18:15.875Z,37.05
2022-08-26T12:20:46.522Z,37.06
2022-08-26T12:23:40.629Z,37.18
2022-08-26T12:26:30.312Z,37.32
2022-08-26T12:28:58.686Z,37.83
2022-08-26T12:31:40.453Z,37.89
2022-08-26T12:34:17.468Z,38.20
2022-08-26T12:36:48.932Z,38.38
2022-08-26T12:39:29.504Z,38.46
2022-08-26T12:42:03.397Z,38.41
2022-08-26T12:44:58.619Z,38.52
2022-08-26T12:47:42.943Z,38.69
2022-08-26T12:50:24.572Z,38.62
2022-08-26T12:53:00.470Z,38.87
2022-08-26T12:55:54.041Z,38.65
2022-08-26T12:58:36.970Z,38.66
2022-08-26T13:01:07.040Z,38.75
2022-08-26T13:03:34.903Z,38.57
2022-08-26T13:06:25.941Z,38.73
2022-08-26T13:08:54.316Z,38.00
2022-08-26T13:11:32.409Z,37.80
2022-08-26T13:14:08.165Z,37.20
2022-08-26T13:16:37.380Z,36.87
2022-08-26T13:19:10.397Z,36.25
2022-08-26T13:21:58.985Z,36.15
2022-08-26T13:24:38.669Z,35.98
2022-08-26T13:27:07.482Z,35.78
2022-08-26T13:29:36.817Z,35.49
2022-08-26T13:32:05.482Z,35.70
2022-08-26T13:34:35.812Z,35.33
2022-08-26T13:37:02.717Z,34.82
2022-08-26T13:39:29.400Z,35.14
2022-08-26T13:41:56.399Z,34.99
2022-08-26T13:44:23.108Z,34.96
2022-08-26T13:46:49.944Z,34.99
2022-08-26T13:49:16.751Z,34.88
2022-08-26T13:51:46.309Z,34.72
2022-08-26T13:54:13.055Z,34.62
2022-08-26T13:56:39.855Z,34.55
2022-08-26T13:59:06.754Z,34.42
2022-08-26T14:01:34.989Z,34.37
2022-08-26T14:04:02.694Z,34.39
2022-08-26T14:06:30.095Z,34.28
2022-08-26T14:08:56.894Z,34.22
2022-08-26T14:11:25.092Z,34.44
2022-08-26T14:13:52.613Z,34.32
2022-08-26T14:16:36.301Z,34.33
2022-08-26T14:19:18.042Z,34.25
2022-08-26T14:21:51.235Z,34.11
2022-08-26T14:24:17.842Z,34.12
2022-08-26T14:26:44.514Z,34.22
2022-08-26T14:29:14.642Z,33.96
2022-08-26T14:31:43.639Z,33.86
2022-08-26T14:34:13.102Z,33.78
2022-08-26T14:36:39.831Z,33.54
2022-08-26T14:39:10.066Z,33.88
2022-08-26T14:41:54.508Z,34.03
2022-08-26T14:44:25.893Z,33.94
2022-08-26T14:46:53.502Z,33.70
2022-08-26T14:49:22.234Z,33.74
2022-08-26T14:51:49.323Z,33.88
2022-08-26T14:54:18.311Z,33.81
2022-08-26T14:56:49.340Z,33.84
2022-08-26T14:59:21.909Z,33.76
2022-08-26T15:01:49.169Z,33.54
2022-08-26T15:04:16.329Z,32.80
2022-08-26T15:06:43.417Z,33.70
2022-08-26T15:09:11.163Z,33.60
2022-08-26T15:11:38.254Z,33.58
2022-08-26T15:14:19.107Z,33.51
2022-08-26T15:16:59.100Z,33.45
2022-08-26T15:19:26.585Z,33.40
2022-08-26T15:21:53.345Z,33.27
2022-08-26T15:24:28.961Z,33.37
2022-08-26T15:26:56.145Z,33.20
2022-08-26T15:29:26.595Z,33.38
2022-08-26T15:31:55.270Z,33.32
2022-08-26T15:34:24.257Z,33.27
2022-08-26T15:36:50.995Z,32.94
2022-08-26T15:39:19.043Z,33.04
2022-08-26T15:41:46.396Z,33.18
2022-08-26T15:44:19.959Z,33.04
2022-08-26T15:46:48.512Z,32.73
2022-08-26T15:49:17.744Z,33.17
2022-08-26T15:51:48.139Z,33.10
2022-08-26T15:54:21.041Z,32.96
2022-08-26T15:57:14.364Z,33.05
2022-08-26T15:59:42.035Z,32.98
2022-08-26T16:02:10.877Z,32.52
2022-08-26T16:04:37.684Z,32.73
2022-08-26T16:07:04.791Z,32.99
2022-08-26T16:09:32.665Z,32.64
2022-08-26T16:11:59.418Z,32.97
2022-08-26T16:14:26.597Z,32.70
2022-08-26T16:16:53.530Z,32.29
2022-08-26T16:19:24.779Z,31.97
2022-08-26T16:21:51.871Z,32.52
2022-08-26T16:24:25.904Z,32.74
2022-08-26T16:26:54.553Z,32.73
2022-08-26T16:29:21.371Z,32.72
2022-08-26T16:31:50.598Z,32.52
2022-08-26T16:34:17.535Z,32.47
2022-08-26T16:36:44.446Z,32.66
2022-08-26T16:39:11.219Z,32.08
2022-08-26T16:41:38.040Z,32.55
2022-08-26T16:44:05.742Z,32.60
2022-08-26T16:46:33.863Z,32.66
2022-08-26T16:49:03.627Z,32.63
2022-08-26T16:51:32.444Z,32.73
2022-08-26T16:54:08.804Z,32.63
2022-08-26T16:56:35.812Z,32.59
2022-08-26T16:59:05.037Z,32.52
2022-08-26T17:01:32.153Z,32.24
2022-08-26T17:03:58.864Z,32.30
2022-08-26T17:06:25.476Z,32.47
2022-08-26T17:08:53.135Z,32.44
2022-08-26T17:11:19.838Z,32.21
2022-08-26T17:13:46.512Z,32.46
2022-08-26T17:16:13.999Z,31.73
2022-08-26T17:18:43.210Z,32.20
2022-08-26T17:21:12.305Z,32.34
2022-08-26T17:23:41.013Z,32.25
2022-08-26T17:26:09.190Z,32.19
2022-08-26T17:28:37.077Z,31.51
2022-08-26T17:31:05.018Z,31.56
2022-08-26T17:33:34.181Z,32.01
2022-08-26T17:36:05.031Z,32.05
2022-08-26T17:38:34.892Z,32.07
2022-08-26T17:41:08.914Z,31.91
2022-08-26T17:43:35.955Z,32.02
2022-08-26T17:46:16.223Z,31.14
2022-08-26T17:48:53.492Z,31.44
2022-08-26T17:51:27.151Z,30.80
2022-08-26T17:54:01.936Z,31.01
2022-08-26T17:56:31.772Z,31.02
2022-08-26T17:59:03.982Z,30.92
2022-08-26T18:01:34.501Z,31.34
2022-08-26T18:04:04.046Z,31.72
2022-08-26T18:06:35.062Z,30.46
2022-08-26T18:09:11.238Z,31.01
2022-08-26T18:11:41.119Z,31.50
2022-08-26T18:14:30.716Z,30.97
2022-08-26T18:17:05.996Z,30.83
2022-08-26T18:19:39.887Z,29.98
2022-08-26T18:22:07.148Z,30.03
2022-08-26T18:24:34.902Z,30.73
2022-08-26T18:27:02.002Z,31.17
2022-08-26T18:29:30.704Z,30.26
2022-08-26T18:37:31.777Z,30.09
2022-08-26T18:40:08.515Z,30.59
2022-08-26T18:42:40.991Z,30.58
2022-08-26T18:45:16.592Z,30.09
2022-08-26T18:47:43.482Z,30.67
2022-08-26T18:50:11.263Z,30.29
2022-08-26T18:52:47.646Z,30.76
2022-08-26T18:55:22.937Z,30.10
2022-08-26T18:57:54.962Z,30.65
2022-08-26T19:00:22.033Z,30.50
2022-08-26T19:02:52.430Z,30.23
2022-08-26T19:05:36.063Z,30.56
2022-08-26T19:08:02.944Z,30.21
2022-08-26T19:10:45.354Z,29.14
2022-08-26T19:13:27.731Z,30.55
2022-08-26T19:15:57.955Z,30.47
2022-08-26T19:18:25.553Z,30.42
2022-08-26T19:20:55.405Z,29.69
2022-08-26T19:23:31.893Z,30.42
2022-08-26T19:26:10.067Z,30.28
2022-08-26T19:28:49.370Z,29.96
2022-08-26T19:31:23.037Z,30.30
2022-08-26T19:33:58.900Z,29.73
2022-08-26T19:36:29.570Z,29.49
2022-08-26T19:39:29.617Z,29.40
2022-08-26T19:45:18.319Z,29.57
2022-08-26T19:47:59.302Z,29.66
2022-08-26T19:50:35.264Z,29.56
2022-08-26T19:53:08.909Z,29.38
2022-08-26T19:55:45.030Z,29.08
2022-08-26T19:58:22.810Z,29.88
2022-08-26T20:00:54.731Z,28.75
2022-08-26T20:03:31.355Z,29.68
2022-08-26T20:06:01.326Z,29.30
2022-08-26T20:08:31.193Z,28.69
2022-08-26T20:11:13.121Z,29.26
2022-08-26T20:13:49.757Z,29.21
2022-08-26T20:16:20.249Z,29.49
2022-08-26T20:19:16.290Z,28.67
2022-08-26T20:21:50.067Z,29.34
2022-08-26T20:24:21.280Z,28.79
2022-08-26T20:26:50.387Z,28.29
2022-08-26T20:29:24.249Z,28.61
2022-08-26T20:34:58.198Z,29.38
2022-08-26T20:37:29.325Z,28.88
2022-08-26T20:39:56.357Z,28.90
2022-08-26T20:42:29.606Z,29.25
2022-08-26T20:45:06.487Z,28.76
2022-08-26T20:47:33.708Z,27.86
2022-08-26T20:50:00.557Z,29.23
2022-08-26T20:52:27.630Z,29.18
2022-08-26T20:54:54.427Z,28.69
2022-08-26T20:57:23.529Z,29.10
2022-08-26T20:59:50.621Z,28.85
2022-08-26T21:02:17.294Z,29.08
2022-08-26T21:04:44.139Z,28.98
2022-08-26T21:07:10.870Z,28.95
2022-08-26T21:09:37.570Z,28.93
2022-08-26T21:12:05.484Z,28.76
2022-08-26T21:14:32.239Z,28.89
2022-08-26T21:16:59.617Z,28.21
2022-08-26T21:19:26.757Z,28.87
2022-08-26T21:21:53.407Z,28.58
2022-08-26T21:24:20.129Z,28.82
2022-08-26T21:26:47.505Z,28.20
2022-08-26T21:29:14.681Z,28.52
2022-08-26T21:31:46.032Z,28.78
2022-08-26T21:34:17.998Z,28.82
2022-08-26T21:36:48.946Z,28.83
2022-08-26T21:39:16.172Z,28.06
2022-08-26T21:41:43.888Z,28.66
2022-08-26T21:44:12.046Z,28.72
2022-08-26T21:46:39.131Z,28.69
2022-08-26T21:49:08.954Z,28.71
2022-08-26T21:51:39.357Z,28.71
2022-08-26T21:54:10.781Z,28.71
2022-08-26T21:56:42.024Z,28.63
2022-08-26T21:59:09.163Z,28.65
2022-08-26T22:01:37.844Z,28.62
2022-08-26T22:04:08.145Z,28.10
2022-08-26T22:06:39.555Z,28.29
2022-08-26T22:09:06.307Z,28.54
2022-08-26T22:11:33.174Z,28.50
2022-08-26T22:13:59.964Z,27.75
2022-08-26T22:16:28.759Z,28.36
2022-08-26T22:18:55.719Z,27.78
2022-08-26T22:21:24.677Z,28.24
2022-08-26T22:23:51.707Z,28.22
2022-08-26T22:26:25.727Z,28.24
2022-08-26T22:28:58.696Z,28.00
2022-08-26T22:31:31.004Z,28.15
2022-08-26T22:34:08.040Z,28.20
2022-08-26T22:36:35.289Z,28.31
2022-08-26T22:39:02.269Z,27.98
2022-08-26T22:41:29.020Z,28.28
2022-08-26T22:44:01.075Z,28.33
2022-08-26T22:46:27.699Z,28.19
2022-08-26T22:48:55.222Z,27.71
2022-08-26T22:51:23.183Z,28.30
2022-08-26T22:53:49.944Z,27.87
2022-08-26T22:56:18.443Z,28.22
2022-08-26T22:58:45.658Z,28.16
2022-08-26T23:01:12.858Z,28.16
2022-08-26T23:03:39.843Z,27.99
2022-08-26T23:06:09.507Z,27.86
2022-08-26T23:08:37.284Z,28.01
2022-08-26T23:11:10.943Z,27.82
2022-08-26T23:13:38.817Z,26.46
2022-08-26T23:16:09.576Z,27.86
2022-08-26T23:18:36.926Z,27.96
2022-08-26T23:21:03.784Z,27.81
2022-08-26T23:23:31.265Z,27.79
2022-08-26T23:25:58.570Z,27.68
2022-08-26T23:28:26.579Z,27.94
2022-08-26T23:30:54.028Z,28.02
2022-08-26T23:33:21.005Z,27.99
2022-08-26T23:35:47.690Z,27.91
2022-08-26T23:38:15.085Z,27.69
2022-08-26T23:40:41.995Z,27.99
2022-08-26T23:43:11.618Z,27.91
2022-08-26T23:45:38.940Z,27.90
2022-08-26T23:48:06.742Z,27.62
2022-08-26T23:50:51.984Z,27.19
2022-08-26T23:53:22.035Z,27.67
2022-08-26T23:55:51.421Z,27.80
2022-08-26T23:58:20.387Z,27.71
